Terminal Aerodrome Forecast
Issued by NWS

Home | Current Version | Previous Version | Text Only | Print | Product List | Glossary On
Versions: 1 2 3 4 5 6 7 8 9 10 11 12 13 14 15 16
000
FTUS44 KBMX 190500
TAFEET
TAF
KEET 190529Z 1906/2006 00000KT P6SM SCT100 BKN250
     FM191500 02005KT P6SM SCT035 BKN100
     FM192000 36005KT P6SM VCSH SCT035 OVC050
     FM200300 36005KT 4SM RA BKN035 OVC050=

USA.gov is the U.S. government's official web portal to all federal, state and local government web resources and services.